Time;durP1;ratioP1;P1;durP2;ratioP2;P2;SDS_P1;SDS_P2;PMS_P1;PMS_P2;Temp;Humidity;BMP_temperature;BMP_pressure;BME280_temperature;BME280_humidity;BME280_pressure;Samples;Min_cycle;Max_cycle;Signal;HPM_P1;HPM_P2
2023/08/30 00:02:11;;;;;;;4.53;4.13;;;13.10;99.90;;;;;;5010225;28;20465;-72
2023/08/30 00:04:38;;;;;;;6.10;4.10;;;13.10;99.90;;;;;;5012384;28;20433;-72
2023/08/30 00:07:05;;;;;;;5.13;4.50;;;13.10;99.90;;;;;;5012013;28;20842;-72
2023/08/30 00:09:31;;;;;;;4.80;3.80;;;13.10;99.90;;;;;;5011246;28;20706;-71
2023/08/30 00:11:58;;;;;;;4.50;4.10;;;13.10;99.90;;;;;;5011334;28;20469;-72
2023/08/30 00:14:26;;;;;;;5.00;4.20;;;13.20;99.90;;;;;;5011678;28;20897;-71
2023/08/30 00:16:53;;;;;;;6.87;4.83;;;13.20;99.90;;;;;;5005550;28;20496;-72
2023/08/30 00:19:20;;;;;;;4.27;3.97;;;13.20;99.90;;;;;;5006504;28;20430;-72
2023/08/30 00:21:47;;;;;;;5.40;4.87;;;13.10;99.90;;;;;;5011783;28;20490;-72
2023/08/30 00:24:14;;;;;;;9.97;4.53;;;13.00;99.90;;;;;;5012079;28;20450;-72
2023/08/30 00:26:41;;;;;;;4.70;4.30;;;13.10;99.90;;;;;;5011291;28;20527;-72
2023/08/30 00:29:07;;;;;;;5.33;4.10;;;13.10;99.90;;;;;;5012384;28;20520;-72
2023/08/30 00:31:35;;;;;;;4.90;4.50;;;13.10;99.90;;;;;;5005317;28;20526;-72
2023/08/30 00:34:02;;;;;;;5.50;5.00;;;13.10;99.90;;;;;;5011305;28;21002;-72
2023/08/30 00:36:29;;;;;;;7.43;4.70;;;13.10;99.90;;;;;;5010333;28;20490;-72
2023/08/30 00:38:55;;;;;;;6.17;4.20;;;13.10;99.90;;;;;;5012529;28;20429;-72
2023/08/30 00:41:22;;;;;;;6.70;4.87;;;13.10;99.90;;;;;;5011715;28;20506;-72
2023/08/30 00:43:48;;;;;;;5.50;5.00;;;13.00;99.90;;;;;;5009675;28;20573;-72
2023/08/30 00:46:16;;;;;;;5.63;4.77;;;13.00;99.90;;;;;;5011106;28;20991;-72
2023/08/30 00:48:45;;;;;;;6.17;5.03;;;12.80;99.90;;;;;;5011084;28;20923;-72
2023/08/30 00:51:12;;;;;;;7.20;4.73;;;12.70;99.90;;;;;;5007259;28;20525;-71
2023/08/30 00:53:39;;;;;;;5.17;4.77;;;12.70;99.90;;;;;;5010802;28;20433;-72
2023/08/30 00:56:06;;;;;;;5.70;4.23;;;12.70;99.90;;;;;;5012123;28;20513;-72
2023/08/30 00:58:33;;;;;;;4.37;4.07;;;12.70;99.90;;;;;;5011702;28;20560;-72
2023/08/30 01:01:00;;;;;;;5.33;4.93;;;12.70;99.90;;;;;;5009490;28;20514;-72
2023/08/30 01:03:26;;;;;;;4.63;4.23;;;12.80;99.90;;;;;;5002838;28;20883;-72
2023/08/30 01:05:54;;;;;;;5.83;4.50;;;12.80;99.90;;;;;;5006651;28;20485;-72
2023/08/30 01:08:21;;;;;;;5.80;4.37;;;12.90;99.90;;;;;;5011076;28;20877;-72
2023/08/30 01:10:54;;;;;;;4.63;4.23;;;12.90;99.90;;;;;;5005236;28;20896;-72
2023/08/30 01:13:22;;;;;;;9.77;4.90;;;12.90;99.90;;;;;;5006357;28;20525;-72
2023/08/30 01:15:49;;;;;;;14.23;4.47;;;12.90;99.90;;;;;;5008070;28;20956;-72
2023/08/30 01:18:19;;;;;;;7.83;4.77;;;13.00;99.90;;;;;;5010565;28;21035;-72
2023/08/30 01:20:47;;;;;;;4.93;4.30;;;13.00;99.90;;;;;;5010820;28;20476;-71
2023/08/30 01:23:25;;;;;;;4.80;4.40;;;13.00;99.90;;;;;;5003095;28;20511;-71
2023/08/30 01:25:58;;;;;;;5.17;4.30;;;13.10;99.90;;;;;;5010855;28;20501;-71
2023/08/30 01:28:30;;;;;;;4.40;4.03;;;13.10;99.90;;;;;;5011570;28;20578;-72
2023/08/30 01:30:57;;;;;;;4.57;4.17;;;13.10;99.90;;;;;;5006331;28;20516;-72
2023/08/30 01:33:27;;;;;;;8.23;4.00;;;13.10;99.90;;;;;;5000952;28;20459;-72
2023/08/30 01:35:54;;;;;;;5.20;4.47;;;13.10;99.90;;;;;;5000535;28;20551;-72
2023/08/30 01:38:22;;;;;;;5.17;4.33;;;13.10;99.90;;;;;;5007142;28;20904;-72
2023/08/30 01:40:49;;;;;;;6.57;4.53;;;13.10;99.90;;;;;;5011133;28;20501;-72
2023/08/30 01:43:17;;;;;;;7.00;5.23;;;13.10;99.90;;;;;;5006375;28;20459;-72
2023/08/30 01:45:45;;;;;;;4.70;4.30;;;13.20;99.90;;;;;;5008558;28;20513;-72
2023/08/30 01:48:13;;;;;;;5.13;4.63;;;13.20;99.90;;;;;;5005860;28;20480;-72
2023/08/30 01:50:42;;;;;;;5.93;4.53;;;13.20;99.90;;;;;;5001753;28;20475;-72
2023/08/30 01:53:09;;;;;;;5.20;4.70;;;13.20;99.90;;;;;;5010774;28;20494;-72
2023/08/30 01:55:37;;;;;;;6.33;4.90;;;13.10;99.90;;;;;;5005125;28;21019;-72
2023/08/30 01:58:04;;;;;;;7.70;4.93;;;13.10;99.90;;;;;;5006368;28;20490;-72
2023/08/30 02:00:31;;;;;;;5.37;4.50;;;13.10;99.90;;;;;;5003146;28;21045;-72
2023/08/30 02:02:59;;;;;;;5.93;5.07;;;13.00;99.90;;;;;;5005208;28;20462;-72
2023/08/30 02:05:26;;;;;;;9.40;5.23;;;13.00;99.90;;;;;;5010343;28;20965;-72
2023/08/30 02:07:58;;;;;;;7.40;5.30;;;13.00;99.90;;;;;;5004398;28;20447;-72
2023/08/30 02:10:32;;;;;;;5.10;4.60;;;12.90;99.90;;;;;;4999660;28;20479;-72
2023/08/30 02:13:00;;;;;;;9.60;5.03;;;12.90;99.90;;;;;;5001244;28;20485;-72
2023/08/30 02:15:28;;;;;;;5.67;4.70;;;12.80;99.90;;;;;;5005848;28;20463;-72
2023/08/30 02:17:56;;;;;;;5.70;4.60;;;12.70;99.90;;;;;;5003122;28;20494;-72
2023/08/30 02:20:24;;;;;;;5.30;4.73;;;12.70;99.90;;;;;;4999397;28;20478;-72
2023/08/30 02:22:51;;;;;;;5.13;4.63;;;12.70;99.90;;;;;;5001357;28;20493;-72
2023/08/30 02:25:17;;;;;;;11.60;4.50;;;12.70;99.90;;;;;;5003094;28;21151;-72
2023/08/30 02:27:44;;;;;;;5.37;4.87;;;12.70;99.90;;;;;;5007794;28;20972;-72
2023/08/30 02:30:11;;;;;;;13.30;4.40;;;12.70;99.90;;;;;;5009291;28;20454;-72
2023/08/30 02:32:38;;;;;;;7.33;4.40;;;12.70;99.90;;;;;;5009525;28;20454;-72
2023/08/30 02:35:06;;;;;;;5.70;5.20;;;12.70;99.90;;;;;;4998222;28;20504;-72
2023/08/30 02:37:34;;;;;;;7.77;4.83;;;12.70;99.90;;;;;;5002137;28;20549;-72
2023/08/30 02:40:01;;;;;;;5.70;5.20;;;12.70;99.90;;;;;;5005599;28;20466;-72
2023/08/30 02:42:27;;;;;;;5.33;4.83;;;12.70;99.90;;;;;;5002709;28;20462;-72
2023/08/30 02:44:54;;;;;;;5.47;4.90;;;12.70;99.90;;;;;;5010107;28;20454;-72
2023/08/30 02:47:20;;;;;;;6.27;4.70;;;12.70;99.90;;;;;;5006507;28;20866;-72
2023/08/30 02:49:47;;;;;;;9.47;4.50;;;12.70;99.90;;;;;;5005615;28;20474;-71
2023/08/30 02:52:14;;;;;;;6.60;5.50;;;12.70;99.90;;;;;;5002476;28;20474;-70
2023/08/30 02:54:42;;;;;;;5.57;5.07;;;12.70;99.90;;;;;;5007751;28;21157;-71
2023/08/30 02:57:09;;;;;;;8.87;5.07;;;12.70;99.90;;;;;;5009453;28;20880;-71
2023/08/30 02:59:36;;;;;;;5.70;5.20;;;12.70;99.90;;;;;;5004006;28;20467;-71
2023/08/30 03:02:02;;;;;;;6.00;5.40;;;12.70;99.90;;;;;;5001892;28;20499;-71
2023/08/30 03:04:29;;;;;;;6.40;5.27;;;12.70;99.90;;;;;;5003379;28;20542;-71
2023/08/30 03:06:56;;;;;;;5.80;5.30;;;12.70;99.90;;;;;;5005297;28;20458;-71
2023/08/30 03:09:22;;;;;;;6.03;5.33;;;12.70;99.90;;;;;;5009038;28;20505;-71
2023/08/30 03:11:50;;;;;;;5.53;5.03;;;12.80;99.90;;;;;;5002024;28;20478;-71
2023/08/30 03:14:17;;;;;;;5.70;5.07;;;12.80;99.90;;;;;;4999340;28;20524;-71
2023/08/30 03:16:45;;;;;;;6.23;5.63;;;12.80;99.90;;;;;;5005264;28;20451;-71
2023/08/30 03:19:11;;;;;;;9.30;5.37;;;12.90;99.90;;;;;;5005221;28;20577;-71
2023/08/30 03:21:38;;;;;;;7.87;5.90;;;12.90;99.90;;;;;;5006925;28;20544;-71
2023/08/30 03:24:05;;;;;;;8.13;5.40;;;12.90;99.90;;;;;;5010065;28;20429;-71
2023/08/30 03:26:32;;;;;;;9.10;6.00;;;12.90;99.90;;;;;;4998541;28;20463;-71
2023/08/30 03:29:00;;;;;;;9.13;5.37;;;12.80;99.90;;;;;;5004894;28;20450;-71
2023/08/30 03:31:26;;;;;;;7.03;6.17;;;12.80;99.90;;;;;;5003496;28;20536;-71
2023/08/30 03:33:53;;;;;;;6.60;6.00;;;12.80;99.90;;;;;;5009481;28;20450;-71
2023/08/30 03:36:20;;;;;;;8.70;7.03;;;12.80;99.90;;;;;;5013913;28;20488;-72
2023/08/30 03:38:47;;;;;;;8.27;7.00;;;12.70;99.90;;;;;;5006758;28;20569;-71
2023/08/30 03:41:14;;;;;;;7.80;7.10;;;12.70;99.90;;;;;;4999640;28;20479;-72
2023/08/30 03:43:41;;;;;;;8.00;6.63;;;12.70;99.90;;;;;;5008439;28;20870;-72
2023/08/30 03:46:11;;;;;;;8.77;6.80;;;12.70;99.90;;;;;;5009453;28;20507;-72
2023/08/30 03:48:38;;;;;;;7.40;6.03;;;12.70;99.90;;;;;;5010365;28;20516;-72
2023/08/30 03:51:05;;;;;;;7.93;6.70;;;12.70;99.90;;;;;;5011765;28;20470;-72
2023/08/30 03:53:31;;;;;;;7.57;6.50;;;12.70;99.90;;;;;;5003518;28;20474;-72
2023/08/30 03:55:59;;;;;;;9.70;7.23;;;12.70;99.90;;;;;;5004848;28;20512;-72
2023/08/30 03:58:25;;;;;;;8.33;6.53;;;12.70;99.90;;;;;;5009277;28;21087;-72
2023/08/30 04:00:52;;;;;;;9.70;7.17;;;12.60;99.90;;;;;;5006749;28;20520;-72
2023/08/30 04:03:20;;;;;;;10.20;6.47;;;12.60;99.90;;;;;;5006875;28;20454;-72
2023/08/30 04:05:47;;;;;;;7.87;7.07;;;12.60;99.90;;;;;;5005761;28;20495;-72
2023/08/30 04:08:13;;;;;;;7.77;6.50;;;12.60;99.90;;;;;;5002556;28;20454;-72
2023/08/30 04:10:42;;;;;;;7.13;6.13;;;12.60;99.90;;;;;;5007924;28;20514;-72
2023/08/30 04:13:09;;;;;;;7.03;6.33;;;12.60;99.90;;;;;;5009908;28;20446;-72
2023/08/30 04:15:37;;;;;;;8.00;6.50;;;12.60;99.90;;;;;;5009104;28;20492;-72
2023/08/30 04:18:04;;;;;;;9.10;6.00;;;12.60;99.90;;;;;;5012909;28;20513;-72
2023/08/30 04:20:33;;;;;;;7.30;6.03;;;12.60;99.90;;;;;;5001222;28;20483;-72
2023/08/30 04:23:01;;;;;;;6.67;5.97;;;12.60;99.90;;;;;;5007244;28;20451;-72
2023/08/30 04:25:28;;;;;;;7.00;6.40;;;12.60;99.90;;;;;;5007046;28;20797;-71
2023/08/30 04:27:54;;;;;;;6.93;6.03;;;12.60;99.90;;;;;;5010222;28;21010;-72
2023/08/30 04:30:21;;;;;;;7.83;6.10;;;12.70;99.90;;;;;;5011156;28;20534;-72
2023/08/30 04:32:48;;;;;;;7.83;7.03;;;12.70;99.90;;;;;;5010545;28;20521;-72
2023/08/30 04:35:14;;;;;;;17.57;6.23;;;12.70;99.90;;;;;;5004491;28;21052;-72
2023/08/30 04:37:42;;;;;;;8.53;6.40;;;12.70;99.90;;;;;;5005892;28;20454;-72
2023/08/30 04:40:10;;;;;;;7.70;7.00;;;12.60;99.90;;;;;;5009865;28;20451;-72
2023/08/30 04:42:37;;;;;;;7.67;6.87;;;12.70;99.90;;;;;;5007687;28;20495;-72
2023/08/30 04:45:05;;;;;;;8.47;6.67;;;12.60;99.90;;;;;;5011243;28;20462;-72
2023/08/30 04:47:32;;;;;;;8.10;6.10;;;12.50;99.90;;;;;;5001877;28;20482;-72
2023/08/30 04:49:59;;;;;;;7.90;6.13;;;12.50;99.90;;;;;;5003244;28;20462;-72
2023/08/30 04:52:26;;;;;;;6.97;6.37;;;12.50;99.90;;;;;;5011020;28;20471;-72
2023/08/30 04:54:54;;;;;;;9.40;6.23;;;12.50;99.90;;;;;;5008169;28;21269;-72
2023/08/30 04:57:21;;;;;;;8.17;5.80;;;12.60;99.90;;;;;;5007476;28;20524;-72
2023/08/30 04:59:48;;;;;;;17.23;6.33;;;12.60;99.90;;;;;;5011669;28;20498;-72
2023/08/30 05:02:15;;;;;;;9.20;6.70;;;12.60;99.90;;;;;;5005893;28;20603;-72
2023/08/30 05:04:42;;;;;;;7.13;6.10;;;12.60;99.90;;;;;;5003947;28;21000;-72
2023/08/30 05:07:08;;;;;;;6.33;5.73;;;12.60;99.90;;;;;;5009378;28;20450;-72
2023/08/30 05:09:35;;;;;;;7.23;6.60;;;12.60;99.90;;;;;;5005620;28;21025;-72
2023/08/30 05:12:03;;;;;;;6.47;5.73;;;12.70;99.90;;;;;;5011045;28;21672;-72
2023/08/30 05:14:30;;;;;;;7.30;6.00;;;12.70;99.90;;;;;;5001000;28;20467;-72
2023/08/30 05:16:56;;;;;;;6.70;6.03;;;12.70;99.90;;;;;;5005048;28;20536;-72
2023/08/30 05:19:23;;;;;;;12.37;6.00;;;12.70;99.90;;;;;;5005128;28;20494;-72
2023/08/30 05:21:51;;;;;;;8.90;6.00;;;12.70;99.90;;;;;;5010382;28;20481;-72
2023/08/30 05:24:18;;;;;;;12.83;6.30;;;12.80;99.90;;;;;;5008974;28;20470;-72
2023/08/30 05:26:46;;;;;;;7.70;5.90;;;12.80;99.90;;;;;;5004933;28;21032;-72
2023/08/30 05:29:15;;;;;;;13.13;6.57;;;12.80;99.90;;;;;;5005307;28;20468;-72
2023/08/30 05:31:41;;;;;;;11.67;7.00;;;12.90;99.90;;;;;;5006654;28;21064;-72
2023/08/30 05:34:08;;;;;;;6.90;6.20;;;13.00;99.90;;;;;;5008374;28;20458;-72
2023/08/30 05:36:35;;;;;;;8.27;5.90;;;13.00;99.90;;;;;;5009150;28;21026;-72
2023/08/30 05:39:03;;;;;;;7.70;6.77;;;13.00;99.90;;;;;;5008568;28;20932;-72
2023/08/30 05:41:29;;;;;;;10.07;6.93;;;13.00;99.90;;;;;;5009948;28;20870;-71
2023/08/30 05:43:56;;;;;;;8.03;7.23;;;13.10;99.90;;;;;;5003909;28;20541;-72
2023/08/30 05:46:24;;;;;;;10.30;7.30;;;13.00;99.90;;;;;;5006854;28;20466;-72
2023/08/30 05:48:51;;;;;;;8.67;7.77;;;13.00;99.90;;;;;;5007113;28;20973;-72
2023/08/30 05:51:19;;;;;;;15.63;8.87;;;13.00;99.90;;;;;;5010228;28;20504;-72
2023/08/30 05:53:46;;;;;;;16.97;10.37;;;13.10;99.90;;;;;;5011125;28;20466;-72
2023/08/30 05:56:13;;;;;;;12.70;9.37;;;13.10;99.90;;;;;;4998240;28;20433;-72
2023/08/30 05:58:40;;;;;;;12.40;9.90;;;13.10;99.90;;;;;;5004875;28;21040;-72
2023/08/30 06:01:07;;;;;;;14.13;10.43;;;13.00;99.90;;;;;;5002738;28;20541;-72
2023/08/30 06:03:35;;;;;;;13.00;9.83;;;13.00;99.90;;;;;;5008950;28;20458;-72
2023/08/30 06:06:03;;;;;;;15.83;10.80;;;13.00;99.90;;;;;;5005305;28;20515;-72
2023/08/30 06:08:29;;;;;;;18.30;11.97;;;13.00;99.90;;;;;;5010732;28;20945;-73
2023/08/30 06:10:56;;;;;;;18.83;11.03;;;13.00;99.90;;;;;;5013770;28;20536;-73
2023/08/30 06:13:23;;;;;;;16.60;11.20;;;13.10;99.90;;;;;;5004094;28;20457;-74
2023/08/30 06:15:51;;;;;;;14.93;11.07;;;13.10;99.90;;;;;;5005615;28;20870;-72
2023/08/30 06:18:18;;;;;;;17.47;11.10;;;13.20;99.90;;;;;;5015425;28;20477;-72
2023/08/30 06:20:46;;;;;;;12.90;10.90;;;13.20;99.90;;;;;;5017165;28;20474;-73
2023/08/30 06:23:15;;;;;;;18.90;10.63;;;13.30;99.90;;;;;;5017365;28;20491;-72
2023/08/30 06:25:41;;;;;;;12.90;10.83;;;13.30;99.90;;;;;;5016924;28;20820;-72
2023/08/30 06:28:08;;;;;;;14.80;11.30;;;13.30;99.90;;;;;;5016612;28;20869;-73
2023/08/30 06:30:35;;;;;;;18.97;11.50;;;13.30;99.90;;;;;;5016616;28;21065;-71
2023/08/30 06:33:01;;;;;;;17.73;12.13;;;13.30;99.90;;;;;;5015080;28;20492;-71
2023/08/30 06:35:28;;;;;;;15.03;11.67;;;13.30;99.90;;;;;;5014909;28;21083;-72
2023/08/30 06:37:56;;;;;;;17.33;11.00;;;13.30;99.90;;;;;;5016867;28;20437;-72
2023/08/30 06:40:23;;;;;;;12.27;11.07;;;13.40;99.90;;;;;;5017139;28;20489;-74
2023/08/30 06:42:49;;;;;;;13.43;11.77;;;13.40;99.90;;;;;;5017185;28;20495;-71
2023/08/30 06:45:17;;;;;;;20.23;12.17;;;13.40;99.90;;;;;;5016452;28;20449;-71
2023/08/30 06:47:43;;;;;;;14.50;12.10;;;13.50;99.90;;;;;;5016894;28;20895;-72
2023/08/30 06:50:10;;;;;;;16.47;13.33;;;13.60;99.90;;;;;;5016203;28;20527;-71
2023/08/30 06:52:37;;;;;;;16.70;12.90;;;13.70;99.90;;;;;;5015880;28;21285;-72
2023/08/30 06:55:05;;;;;;;18.70;12.70;;;13.80;99.90;;;;;;5016287;28;20458;-72
2023/08/30 06:57:32;;;;;;;18.60;12.30;;;14.00;99.90;;;;;;5016749;28;20458;-72
2023/08/30 07:00:07;;;;;;;15.60;12.67;;;14.10;99.90;;;;;;5015156;28;20489;-71
2023/08/30 07:02:34;;;;;;;17.37;12.63;;;14.20;99.90;;;;;;5016079;28;20507;-72
2023/08/30 07:05:00;;;;;;;16.40;12.53;;;14.30;99.90;;;;;;5015846;28;20461;-73
2023/08/30 07:07:27;;;;;;;17.10;12.33;;;14.50;99.90;;;;;;5017478;28;20468;-74
2023/08/30 07:09:54;;;;;;;16.90;11.73;;;14.70;99.90;;;;;;5019493;28;21557;-70
2023/08/30 07:12:22;;;;;;;15.97;11.60;;;14.80;99.90;;;;;;5020483;28;20459;-72
2023/08/30 07:14:48;;;;;;;12.60;11.30;;;15.00;99.90;;;;;;5019558;28;20457;-71
2023/08/30 07:17:15;;;;;;;13.70;11.37;;;15.30;99.90;;;;;;5019648;28;20504;-72
2023/08/30 07:19:42;;;;;;;14.30;11.30;;;15.30;99.90;;;;;;5018123;28;20499;-72
2023/08/30 07:22:08;;;;;;;14.17;11.30;;;15.40;99.90;;;;;;5019137;28;20460;-72
2023/08/30 07:24:35;;;;;;;14.83;11.20;;;15.50;99.90;;;;;;5020109;28;20436;-73
2023/08/30 07:27:02;;;;;;;15.20;11.43;;;15.50;99.90;;;;;;5015648;28;20491;-72
2023/08/30 07:29:29;;;;;;;15.83;12.20;;;15.60;99.90;;;;;;5017468;28;20524;-72
2023/08/30 07:31:56;;;;;;;18.83;12.33;;;15.70;99.90;;;;;;5018398;28;20444;-72
2023/08/30 07:34:23;;;;;;;19.67;12.57;;;15.80;99.90;;;;;;5018661;28;20491;-71
2023/08/30 07:36:49;;;;;;;15.03;11.77;;;15.80;99.90;;;;;;5019263;28;20423;-72
2023/08/30 07:39:16;;;;;;;13.83;11.80;;;16.00;99.90;;;;;;5018399;28;20477;-72
2023/08/30 07:41:43;;;;;;;13.63;11.90;;;16.10;99.90;;;;;;5019040;28;20447;-72
2023/08/30 07:44:09;;;;;;;24.87;12.47;;;16.10;99.90;;;;;;5018759;28;20436;-72
2023/08/30 07:46:37;;;;;;;19.60;12.73;;;16.10;99.90;;;;;;5017757;28;21118;-72
2023/08/30 07:49:04;;;;;;;16.63;12.50;;;16.10;99.90;;;;;;5019564;28;20459;-72
2023/08/30 07:51:31;;;;;;;17.37;12.93;;;16.00;99.90;;;;;;5019187;28;20519;-72
2023/08/30 07:53:57;;;;;;;16.23;12.20;;;16.00;99.90;;;;;;5019290;28;20914;-72
2023/08/30 07:56:24;;;;;;;21.30;11.47;;;16.20;99.90;;;;;;5019031;28;20543;-72
2023/08/30 07:58:50;;;;;;;16.30;11.20;;;16.40;99.90;;;;;;5019834;28;20455;-72
2023/08/30 08:01:17;;;;;;;15.80;11.23;;;16.50;99.90;;;;;;5017664;28;20452;-72
2023/08/30 08:03:45;;;;;;;19.47;12.67;;;16.70;99.90;;;;;;5018794;28;20491;-72
2023/08/30 08:06:12;;;;;;;17.80;12.70;;;16.70;99.90;;;;;;5017167;28;21005;-72
2023/08/30 08:08:38;;;;;;;15.37;12.73;;;16.80;99.90;;;;;;5018239;28;20491;-72
2023/08/30 08:11:05;;;;;;;20.40;14.53;;;17.10;99.90;;;;;;5019127;28;20494;-72
2023/08/30 08:13:31;;;;;;;20.00;13.60;;;17.30;99.90;;;;;;5017966;28;20463;-71
2023/08/30 08:15:58;;;;;;;25.83;15.80;;;17.30;99.90;;;;;;5018395;28;20535;-72
2023/08/30 08:18:26;;;;;;;24.90;15.87;;;17.30;99.90;;;;;;5017977;28;20429;-72
2023/08/30 08:20:54;;;;;;;30.17;15.77;;;17.10;99.90;;;;;;5018735;28;20459;-72
2023/08/30 08:23:21;;;;;;;24.13;16.63;;;17.20;99.90;;;;;;5018493;28;20458;-71
2023/08/30 08:25:48;;;;;;;33.00;16.27;;;17.30;99.90;;;;;;5018609;28;20433;-72
2023/08/30 08:28:15;;;;;;;24.17;15.37;;;17.50;99.90;;;;;;5019253;28;20553;-72
2023/08/30 08:30:45;;;;;;;34.83;16.87;;;17.60;99.90;;;;;;5018228;28;20532;-73
2023/08/30 08:33:11;;;;;;;28.87;17.90;;;17.80;99.90;;;;;;5018329;28;20531;-72
2023/08/30 08:35:38;;;;;;;32.30;16.30;;;17.80;99.90;;;;;;5017412;28;20470;-72
2023/08/30 08:38:06;;;;;;;26.63;16.23;;;17.80;99.90;;;;;;5017802;28;20440;-72
2023/08/30 08:40:32;;;;;;;25.83;15.87;;;17.70;99.90;;;;;;5018027;28;20493;-72
2023/08/30 08:42:59;;;;;;;32.10;17.10;;;17.60;99.90;;;;;;5018421;28;20457;-72
2023/08/30 08:45:26;;;;;;;22.83;15.80;;;17.60;99.90;;;;;;5019278;28;20453;-72
2023/08/30 08:47:53;;;;;;;26.77;17.00;;;17.60;99.90;;;;;;5019372;28;20449;-72
2023/08/30 08:50:19;;;;;;;21.37;15.17;;;17.60;99.90;;;;;;5018229;28;20519;-72
2023/08/30 08:52:47;;;;;;;24.23;16.80;;;17.50;99.90;;;;;;5018265;28;21555;-72
2023/08/30 08:55:15;;;;;;;20.67;15.17;;;17.70;99.90;;;;;;5018111;28;20461;-71
2023/08/30 08:57:44;;;;;;;23.73;15.40;;;17.80;99.90;;;;;;5019190;28;20415;-72
2023/08/30 09:00:12;;;;;;;23.30;14.90;;;17.90;99.90;;;;;;5019154;28;20517;-72
2023/08/30 09:02:40;;;;;;;25.07;15.90;;;18.10;99.90;;;;;;5018219;28;20994;-72
2023/08/30 09:05:08;;;;;;;23.80;14.40;;;18.30;99.90;;;;;;5018655;28;20483;-73
2023/08/30 09:07:35;;;;;;;17.70;13.37;;;18.40;99.90;;;;;;5019052;28;20483;-72
2023/08/30 09:10:02;;;;;;;20.00;15.07;;;18.70;99.90;;;;;;5018837;28;20944;-72
2023/08/30 09:12:33;;;;;;;20.80;14.03;;;18.60;99.90;;;;;;5019090;28;20446;-72
2023/08/30 09:15:00;;;;;;;20.27;13.30;;;18.70;99.90;;;;;;5018671;28;20504;-72
2023/08/30 09:17:36;;;;;;;21.57;13.30;;;18.80;99.90;;;;;;5018811;28;20446;-72
2023/08/30 09:20:08;;;;;;;19.20;12.50;;;19.20;99.90;;;;;;5018960;28;21152;-72
2023/08/30 09:22:38;;;;;;;16.57;12.27;;;19.60;99.90;;;;;;5017932;28;20858;-72
2023/08/30 09:25:06;;;;;;;17.40;13.00;;;19.90;99.90;;;;;;5018637;28;20458;-72
2023/08/30 09:27:35;;;;;;;11.27;9.90;;;20.20;99.90;;;;;;5018716;28;20512;-72
2023/08/30 09:30:03;;;;;;;15.33;10.63;;;20.50;99.90;;;;;;5017513;28;20455;-72
2023/08/30 09:32:30;;;;;;;16.43;10.17;;;20.70;99.90;;;;;;5016689;28;20512;-72
2023/08/30 09:34:57;;;;;;;11.67;9.73;;;20.80;99.90;;;;;;5017955;28;20469;-72
2023/08/30 09:37:26;;;;;;;12.10;7.93;;;20.80;99.90;;;;;;5017959;28;20453;-72
2023/08/30 09:39:53;;;;;;;9.43;8.00;;;20.60;99.90;;;;;;5017200;28;20486;-72
2023/08/30 09:42:20;;;;;;;11.87;9.20;;;20.40;99.90;;;;;;5018094;28;20923;-72
2023/08/30 09:44:48;;;;;;;9.80;8.53;;;20.40;99.90;;;;;;5018175;28;20457;-72
2023/08/30 09:47:15;;;;;;;12.87;9.77;;;20.30;99.90;;;;;;5018124;28;20457;-73
2023/08/30 09:49:45;;;;;;;8.90;8.00;;;20.20;99.90;;;;;;5017931;28;20529;-73
2023/08/30 09:52:15;;;;;;;10.00;7.07;;;20.00;99.90;;;;;;5017183;28;20561;-72
2023/08/30 09:54:43;;;;;;;7.90;6.57;;;19.90;99.90;;;;;;5017641;28;20516;-71
2023/08/30 09:57:11;;;;;;;12.20;5.50;;;20.20;99.90;;;;;;5017581;28;20464;-71
2023/08/30 09:59:38;;;;;;;9.80;5.87;;;20.60;99.90;;;;;;5016975;28;20486;-71
2023/08/30 10:02:08;;;;;;;6.40;5.80;;;20.80;99.90;;;;;;5017128;28;20472;-72
2023/08/30 10:04:38;;;;;;;4.60;4.20;;;21.00;99.90;;;;;;5017876;28;20446;-71
2023/08/30 10:07:05;;;;;;;6.17;4.43;;;21.40;99.90;;;;;;5018016;28;20449;-71
2023/08/30 10:09:33;;;;;;;5.00;4.50;;;21.50;99.90;;;;;;5017679;28;20453;-71
2023/08/30 10:12:01;;;;;;;6.27;4.90;;;21.80;99.90;;;;;;5017752;28;20510;-72
2023/08/30 10:14:28;;;;;;;4.90;4.23;;;22.00;99.90;;;;;;5017622;28;20525;-71
2023/08/30 10:17:08;;;;;;;5.07;4.40;;;22.20;99.90;;;;;;5016061;28;20457;-71
2023/08/30 10:19:37;;;;;;;10.50;4.80;;;22.10;99.90;;;;;;5017511;28;20478;-71
2023/08/30 10:22:08;;;;;;;6.93;4.97;;;22.00;99.90;;;;;;5016990;28;20896;-71
2023/08/30 10:24:40;;;;;;;7.20;3.60;;;22.00;99.90;;;;;;5016904;28;20465;-71
2023/08/30 10:27:09;;;;;;;5.30;3.80;;;22.10;99.90;;;;;;5012690;28;20462;-71
2023/08/30 10:29:37;;;;;;;5.60;3.60;;;22.00;99.90;;;;;;5011059;28;20473;-70
2023/08/30 10:32:06;;;;;;;9.20;5.23;;;21.90;99.90;;;;;;5010984;28;20519;-71
2023/08/30 10:34:34;;;;;;;4.87;3.80;;;21.90;99.90;;;;;;5010997;28;20450;-72
2023/08/30 10:37:02;;;;;;;3.43;3.13;;;22.00;99.90;;;;;;5008203;28;20553;-71
2023/08/30 10:39:35;;;;;;;4.60;3.77;;;21.80;99.90;;;;;;5011170;28;20450;-71
2023/08/30 10:42:08;;;;;;;3.13;2.90;;;21.50;99.90;;;;;;5003856;28;20503;-71
2023/08/30 10:44:34;;;;;;;3.30;3.00;;;21.10;99.90;;;;;;5009539;28;20458;-71
2023/08/30 10:47:03;;;;;;;6.10;2.90;;;20.90;99.90;;;;;;5011131;28;20493;-70
2023/08/30 10:49:40;;;;;;;3.50;3.20;;;21.10;99.90;;;;;;5010521;28;20446;-70
2023/08/30 10:52:12;;;;;;;8.53;3.90;;;21.20;99.90;;;;;;5007170;28;20465;-72
2023/08/30 10:54:39;;;;;;;3.40;3.10;;;21.30;99.90;;;;;;5010285;28;20485;-71
2023/08/30 10:57:06;;;;;;;8.33;4.47;;;21.70;99.90;;;;;;5010114;28;21078;-71
2023/08/30 10:59:32;;;;;;;5.90;4.97;;;22.20;99.90;;;;;;5010638;28;20804;-71
2023/08/30 11:02:03;;;;;;;4.83;4.10;;;22.50;99.90;;;;;;5010683;28;20531;-71
2023/08/30 11:04:31;;;;;;;6.73;3.90;;;22.30;99.90;;;;;;5010922;28;20443;-71
2023/08/30 11:06:58;;;;;;;4.77;3.80;;;22.30;99.90;;;;;;5010556;28;20516;-71
2023/08/30 11:09:26;;;;;;;3.77;3.40;;;22.50;99.90;;;;;;5010788;28;20454;-73
2023/08/30 11:11:53;;;;;;;4.00;3.53;;;22.10;99.90;;;;;;5006172;28;20467;-74
2023/08/30 11:14:20;;;;;;;4.00;3.70;;;21.70;99.90;;;;;;5010302;28;20458;-72
2023/08/30 11:16:46;;;;;;;4.00;3.60;;;21.30;99.90;;;;;;5006674;28;20446;-70
2023/08/30 11:19:13;;;;;;;4.13;3.80;;;21.20;99.90;;;;;;5010087;28;20442;-73
2023/08/30 11:21:44;;;;;;;5.23;3.80;;;21.50;99.90;;;;;;5009740;28;20556;-70
2023/08/30 11:24:12;;;;;;;3.83;3.53;;;21.70;99.90;;;;;;5007156;28;20459;-79
2023/08/30 11:26:38;;;;;;;7.93;4.00;;;21.90;99.90;;;;;;5008573;28;20449;-78
2023/08/30 11:29:06;;;;;;;4.10;3.73;;;22.00;99.90;;;;;;5009539;28;20466;-78
2023/08/30 11:31:33;;;;;;;4.47;4.07;;;22.10;99.90;;;;;;5006113;28;20466;-78
2023/08/30 11:34:00;;;;;;;5.63;3.70;;;22.00;99.90;;;;;;5009769;28;20466;-79
2023/08/30 11:36:28;;;;;;;3.50;2.90;;;22.20;99.90;;;;;;5007985;28;20458;-80
2023/08/30 11:38:57;;;;;;;5.23;3.60;;;22.40;99.90;;;;;;5007367;28;20526;-78
2023/08/30 11:41:24;;;;;;;4.33;3.20;;;22.70;99.90;;;;;;5012504;28;20485;-78
2023/08/30 11:43:52;;;;;;;6.53;4.17;;;22.80;99.90;;;;;;5012557;28;20458;-76
2023/08/30 11:46:19;;;;;;;4.40;3.20;;;22.80;99.90;;;;;;5013446;28;20505;-80
2023/08/30 11:48:48;;;;;;;6.60;3.40;;;22.40;99.90;;;;;;5010913;28;20500;-77
2023/08/30 11:51:15;;;;;;;5.47;3.77;;;22.00;99.90;;;;;;5010419;28;20987;-77
2023/08/30 11:53:42;;;;;;;6.67;3.67;;;21.90;99.90;;;;;;5011379;28;20508;-77
2023/08/30 11:56:11;;;;;;;7.60;4.43;;;21.60;99.90;;;;;;5012766;28;20466;-77
2023/08/30 11:58:38;;;;;;;5.87;3.50;;;21.50;99.90;;;;;;5016351;28;20446;-78
2023/08/30 12:01:06;;;;;;;4.43;3.40;;;21.30;99.90;;;;;;5016119;28;20552;-78
2023/08/30 12:03:33;;;;;;;3.37;3.07;;;21.30;99.90;;;;;;5015064;28;20458;-78
2023/08/30 12:06:01;;;;;;;4.90;3.30;;;21.00;99.90;;;;;;5017033;28;20508;-78
2023/08/30 12:08:30;;;;;;;5.10;3.60;;;21.00;99.90;;;;;;5018250;28;20477;-78
2023/08/30 12:10:57;;;;;;;3.80;3.50;;;20.90;99.90;;;;;;5016265;28;20893;-78
2023/08/30 12:13:26;;;;;;;5.97;3.73;;;20.90;99.90;;;;;;5010958;28;20454;-78
2023/08/30 12:15:53;;;;;;;6.00;3.53;;;20.70;99.90;;;;;;5014302;28;21024;-78
2023/08/30 12:18:23;;;;;;;5.77;3.30;;;20.50;99.90;;;;;;5016610;28;20505;-77
2023/08/30 12:20:54;;;;;;;7.27;3.57;;;20.50;99.90;;;;;;5015698;28;20521;-78
2023/08/30 12:23:21;;;;;;;5.27;3.50;;;20.50;99.90;;;;;;5015323;28;20995;-76
2023/08/30 12:25:58;;;;;;;4.77;4.00;;;20.40;99.90;;;;;;5016774;28;20493;-79
2023/08/30 12:28:26;;;;;;;5.37;3.60;;;20.30;99.90;;;;;;5008734;28;20549;-80
2023/08/30 12:30:53;;;;;;;5.37;4.03;;;20.30;99.90;;;;;;5022707;28;20470;-79
2023/08/30 12:33:20;;;;;;;4.47;3.70;;;20.20;99.90;;;;;;5018626;28;20446;-80
2023/08/30 12:35:46;;;;;;;6.93;5.70;;;20.10;99.90;;;;;;5018787;28;20471;-79
2023/08/30 12:38:17;;;;;;;5.60;4.03;;;20.00;99.90;;;;;;5020619;28;20451;-80
2023/08/30 12:40:44;;;;;;;4.73;4.30;;;20.00;99.90;;;;;;5018302;28;20984;-78
2023/08/30 12:43:11;;;;;;;5.33;4.03;;;20.00;99.90;;;;;;5004636;28;20455;-82